Time;durP1;ratioP1;P1;durP2;ratioP2;P2;SDS_P1;SDS_P2;PMS_P1;PMS_P2;Temp;Humidity;BMP_temperature;BMP_pressure;BME280_temperature;BME280_humidity;BME280_pressure;Samples;Min_cycle;Max_cycle;Signal;HPM_P1;HPM_P2
2024/02/09 00:00:47;;;;;;;10.37;6.27;;;;;;;8.08;100.00;100633.66;2086698;28;20789;-73
2024/02/09 00:01:49;;;;;;;6.73;4.63;;;;;;;7.71;100.00;100562.81;2085440;28;20454;-73
2024/02/09 00:02:49;;;;;;;11.73;4.83;;;;;;;8.17;100.00;100622.88;2086519;28;20245;-73
2024/02/09 00:03:51;;;;;;;10.50;5.20;;;;;;;8.21;100.00;100629.94;2085704;28;20479;-73
2024/02/09 00:04:51;;;;;;;12.17;4.53;;;;;;;8.10;100.00;100611.94;2088319;28;20241;-73
2024/02/09 00:05:53;;;;;;;22.53;7.60;;;;;;;7.70;100.00;100558.47;2086037;28;20543;-73
2024/02/09 00:06:53;;;;;;;13.07;6.33;;;;;;;8.08;100.00;100597.75;2086849;28;20205;-73
2024/02/09 00:07:54;;;;;;;15.23;6.40;;;;;;;8.30;100.00;100635.72;2085139;28;20520;-73
2024/02/09 00:08:55;;;;;;;14.80;7.80;;;;;;;8.28;100.00;100620.78;2085415;28;20195;-73
2024/02/09 00:09:55;;;;;;;10.77;6.30;;;;;;;8.25;100.00;100618.88;2086707;28;20195;-73
2024/02/09 00:10:56;;;;;;;16.13;7.00;;;;;;;7.84;100.00;100566.56;2087833;28;20317;-73
2024/02/09 00:11:56;;;;;;;9.40;4.80;;;;;;;7.64;100.00;100538.06;2085430;28;20732;-73
2024/02/09 00:12:57;;;;;;;9.97;6.17;;;;;;;8.23;100.00;100629.53;2085382;28;20672;-73
2024/02/09 00:13:57;;;;;;;8.17;4.70;;;;;;;8.23;100.00;100635.03;2076509;28;20666;-73
2024/02/09 00:14:58;;;;;;;10.07;5.10;;;;;;;8.13;100.00;100622.13;2085249;28;20254;-73
2024/02/09 00:15:58;;;;;;;10.63;5.60;;;;;;;8.28;100.00;100642.84;2085896;28;20224;-73
2024/02/09 00:16:59;;;;;;;6.00;3.90;;;;;;;8.31;100.00;100647.56;2088088;28;20715;-73
2024/02/09 00:18:02;;;;;;;8.63;4.57;;;;;;;7.79;100.00;100574.53;2084693;28;20770;-73
2024/02/09 00:19:03;;;;;;;9.60;4.57;;;;;;;8.14;100.00;100620.94;2077891;28;20901;-73
2024/02/09 00:20:10;;;;;;;7.87;3.70;;;;;;;8.29;100.00;100647.19;2085902;28;20454;-73
2024/02/09 00:21:11;;;;;;;7.23;3.80;;;;;;;7.33;100.00;100491.63;2084749;28;20207;-73
2024/02/09 00:22:12;;;;;;;4.60;2.97;;;;;;;8.25;100.00;100630.66;2085641;28;20434;-73
2024/02/09 00:23:13;;;;;;;6.93;3.40;;;;;;;7.65;100.00;100547.13;2085868;28;20223;-73
2024/02/09 00:24:13;;;;;;;6.33;3.60;;;;;;;8.41;100.00;100650.16;2088537;28;20242;-73
2024/02/09 00:25:15;;;;;;;5.17;3.17;;;;;;;8.09;100.00;100594.59;2085473;28;20930;-73
2024/02/09 00:26:16;;;;;;;8.07;4.13;;;;;;;8.52;100.00;100645.28;2086627;28;20235;-73
2024/02/09 00:27:16;;;;;;;6.80;3.83;;;;;;;8.48;100.00;100644.53;2085800;28;20939;-73
2024/02/09 00:28:17;;;;;;;6.77;3.20;;;;;;;8.01;100.00;100567.53;2076772;28;20639;-73
2024/02/09 00:29:17;;;;;;;5.87;3.17;;;;;;;8.59;100.00;100658.19;2085535;28;20649;-73
2024/02/09 00:30:18;;;;;;;7.07;3.30;;;;;;;8.61;100.00;100651.03;2087043;28;20196;-73
2024/02/09 00:31:21;;;;;;;5.03;3.30;;;;;;;8.62;100.00;100651.81;2084813;28;20234;-73
2024/02/09 00:32:22;;;;;;;9.27;3.90;;;;;;;7.77;100.00;100525.28;2085112;28;20196;-73
2024/02/09 00:33:22;;;;;;;11.00;4.33;;;;;;;8.45;100.00;100639.84;2085291;28;20528;-73
2024/02/09 00:34:22;;;;;;;6.07;4.27;;;;;;;8.58;100.00;100648.34;2085978;28;20200;-73
2024/02/09 00:35:23;;;;;;;7.47;4.23;;;;;;;8.60;100.00;100654.22;2085613;28;20207;-73
2024/02/09 00:36:24;;;;;;;6.60;3.73;;;;;;;8.41;100.00;100624.53;2087480;28;20276;-73
2024/02/09 00:37:26;;;;;;;6.10;3.40;;;;;;;8.48;100.00;100627.97;2085359;28;20289;-73
2024/02/09 00:38:27;;;;;;;6.33;3.30;;;;;;;8.36;100.00;100606.44;2085090;28;20192;-73
2024/02/09 00:39:33;;;;;;;8.47;4.10;;;;;;;8.19;100.00;100582.63;2085250;28;20482;-73
2024/02/09 00:40:33;;;;;;;7.23;3.97;;;;;;;8.65;100.00;100653.75;2086099;28;20200;-73
2024/02/09 00:41:34;;;;;;;8.80;4.13;;;;;;;8.26;100.00;100590.06;2086048;28;20436;-73
2024/02/09 00:42:34;;;;;;;6.23;3.53;;;;;;;8.31;100.00;100620.72;2086035;28;20966;-73
2024/02/09 00:43:35;;;;;;;6.27;3.63;;;;;;;8.21;100.00;100588.53;2088250;28;20210;-73
2024/02/09 00:44:37;;;;;;;8.07;4.43;;;;;;;8.75;100.00;100667.41;2086379;28;20211;-73
2024/02/09 00:45:38;;;;;;;7.20;3.97;;;;;;;8.66;100.00;100658.09;2085555;28;20339;-73
2024/02/09 00:46:42;;;;;;;9.27;4.40;;;;;;;7.90;100.00;100548.34;2085479;28;20282;-73
2024/02/09 00:47:43;;;;;;;7.03;3.63;;;;;;;8.69;100.00;100669.06;2085724;28;20823;-73
2024/02/09 00:48:45;;;;;;;7.67;4.10;;;;;;;8.49;100.00;100646.09;2085627;28;20186;-73
2024/02/09 00:49:46;;;;;;;6.03;3.60;;;;;;;7.39;100.00;100457.66;2087304;28;20192;-73
2024/02/09 00:50:46;;;;;;;7.40;3.40;;;;;;;8.67;100.00;100657.66;2085758;28;20508;-73
2024/02/09 00:51:47;;;;;;;7.03;4.10;;;;;;;8.82;100.00;100675.56;2085613;28;20632;-73
2024/02/09 00:52:49;;;;;;;6.27;3.57;;;;;;;8.90;100.00;100670.72;2085498;28;20259;-73
2024/02/09 00:53:49;;;;;;;7.35;3.25;;;;;;;8.92;100.00;100676.63;2085922;28;20331;-73
2024/02/09 00:54:50;;;;;;;5.90;3.33;;;;;;;8.42;100.00;100601.25;2085576;28;20188;-73
2024/02/09 00:55:51;;;;;;;4.00;2.67;;;;;;;8.74;100.00;100645.72;2087302;28;20449;-73
2024/02/09 00:56:53;;;;;;;7.47;3.77;;;;;;;8.81;100.00;100645.63;2084679;28;20232;-73
2024/02/09 00:57:56;;;;;;;6.75;2.67;;;;;;;8.55;100.00;100594.72;2085807;28;20644;-73
2024/02/09 00:58:56;;;;;;;6.20;2.85;;;;;;;9.02;100.00;100662.59;2085442;28;20195;-73
2024/02/09 00:59:57;;;;;;;4.20;2.67;;;;;;;9.14;100.00;100675.06;2085723;28;20214;-73
2024/02/09 01:00:58;;;;;;;5.73;2.53;;;;;;;9.12;100.00;100669.94;2085827;28;20185;-73
2024/02/09 01:01:58;;;;;;;7.73;3.23;;;;;;;8.73;100.00;100600.75;2086594;28;20204;-73
2024/02/09 01:03:02;;;;;;;5.17;2.87;;;;;;;8.61;100.00;100595.78;2087209;28;20223;-73
2024/02/09 01:04:06;;;;;;;5.63;2.80;;;;;;;9.18;100.00;100676.53;2085353;28;20194;-73
2024/02/09 01:05:18;;;;;;;5.45;2.90;;;;;;;9.10;100.00;100649.44;2086239;28;20193;-72
2024/02/09 01:06:21;;;;;;;3.95;2.58;;;;;;;9.16;100.00;100673.44;2085406;28;20264;-73
2024/02/09 01:07:23;;;;;;;2.73;1.80;;;;;;;8.91;100.00;100614.25;2085991;28;20201;-73
2024/02/09 01:08:26;;;;;;;6.73;2.67;;;;;;;9.27;100.00;100660.19;2085656;28;20468;-73
2024/02/09 01:09:27;;;;;;;4.37;3.23;;;;;;;9.28;100.00;100664.50;2085541;28;20497;-73
2024/02/09 01:10:27;;;;;;;5.20;2.15;;;;;;;9.30;100.00;100661.34;2086731;28;20487;-73
2024/02/09 01:11:30;;;;;;;4.43;2.43;;;;;;;9.04;100.00;100616.00;2086887;28;20246;-73
2024/02/09 02:45:17;;;;;;;4.97;1.70;;;;;;;10.75;100.00;100633.72;2085292;28;20196;-73
2024/02/09 02:46:18;;;;;;;5.47;1.93;;;;;;;10.57;100.00;100613.19;2085678;28;20199;-73
2024/02/09 02:47:19;;;;;;;5.50;2.03;;;;;;;10.75;100.00;100638.47;2087559;28;20722;-73
2024/02/09 03:04:21;;;;;;;6.03;2.03;;;;;;;10.58;100.00;100646.03;2087091;28;20438;-73
2024/02/09 03:05:24;;;;;;;3.03;1.70;;;;;;;10.61;100.00;100644.38;2086480;28;20506;-73
2024/02/09 03:06:25;;;;;;;5.27;1.97;;;;;;;10.49;100.00;100628.41;2087162;28;20504;-73
2024/02/09 03:07:26;;;;;;;3.37;1.80;;;;;;;10.60;100.00;100643.59;2086370;28;21038;-73
2024/02/09 03:08:26;;;;;;;2.83;1.80;;;;;;;10.20;100.00;100594.28;2086722;28;20446;-73
2024/02/09 03:09:27;;;;;;;5.60;1.80;;;;;;;10.66;100.00;100644.63;2086725;28;20192;-73
2024/02/09 03:10:29;;;;;;;5.20;1.70;;;;;;;10.26;100.00;100590.56;2089325;28;20290;-73
2024/02/09 03:11:29;;;;;;;4.20;1.67;;;;;;;9.73;100.00;100509.91;2086027;28;20292;-73
2024/02/09 03:12:30;;;;;;;6.07;2.23;;;;;;;10.65;100.00;100654.16;2085828;28;20500;-73
2024/02/09 03:13:32;;;;;;;4.27;1.60;;;;;;;10.23;100.00;100590.63;2077337;28;20219;-73
2024/02/09 03:14:33;;;;;;;3.13;1.73;;;;;;;10.33;100.00;100601.50;2078416;28;20207;-73
2024/02/09 03:15:34;;;;;;;2.37;1.30;;;;;;;10.63;100.00;100653.81;2085930;28;20461;-73
2024/02/09 03:16:35;;;;;;;3.47;1.83;;;;;;;10.64;100.00;100651.81;2087144;28;20997;-73
2024/02/09 03:17:39;;;;;;;3.10;1.57;;;;;;;10.65;100.00;100650.63;2088352;28;20275;-73
2024/02/09 03:18:40;;;;;;;4.10;1.57;;;;;;;10.63;100.00;100645.50;2086547;28;20200;-73
2024/02/09 03:19:40;;;;;;;2.43;1.50;;;;;;;10.21;100.00;100587.53;2086515;28;20525;-73
2024/02/09 03:20:41;;;;;;;3.33;1.40;;;;;;;10.20;100.00;100597.06;2087055;28;20201;-73
2024/02/09 03:21:41;;;;;;;3.37;1.50;;;;;;;10.18;100.00;100611.31;2085307;28;20693;-73
2024/02/09 03:22:42;;;;;;;3.13;1.43;;;;;;;10.05;100.00;100581.97;2077080;28;20669;-73
2024/02/09 03:23:42;;;;;;;4.43;1.30;;;;;;;10.50;100.00;100638.31;2087774;28;20267;-73
2024/02/09 03:24:43;;;;;;;2.63;1.17;;;;;;;10.22;100.00;100606.50;2086796;28;20211;-72
2024/02/09 03:25:44;;;;;;;5.00;1.80;;;;;;;9.63;100.00;100503.38;2085662;28;20199;-72
2024/02/09 03:26:45;;;;;;;3.40;1.27;;;;;;;10.43;100.00;100635.69;2086316;28;20633;-73
2024/02/09 03:27:45;;;;;;;5.43;1.47;;;;;;;10.65;100.00;100665.25;2086314;28;20433;-73
2024/02/09 03:28:46;;;;;;;4.23;1.70;;;;;;;10.72;100.00;100667.06;2085866;28;20195;-73
2024/02/09 03:29:47;;;;;;;2.10;1.53;;;;;;;10.40;100.00;100603.31;2088705;28;20271;-73
2024/02/09 03:30:47;;;;;;;4.93;1.40;;;;;;;10.75;100.00;100652.34;2085930;28;20464;-73
2024/02/09 03:31:48;;;;;;;4.17;1.77;;;;;;;10.84;100.00;100658.84;2086281;28;20188;-73
2024/02/09 03:32:50;;;;;;;2.63;1.23;;;;;;;10.85;100.00;100674.28;2085531;28;20199;-73
2024/02/09 03:33:52;;;;;;;2.63;1.43;;;;;;;10.90;100.00;100659.88;2085753;28;20550;-73
2024/02/09 03:34:53;;;;;;;2.93;1.40;;;;;;;10.55;100.00;100591.44;2086446;28;20476;-73
2024/02/09 03:35:54;;;;;;;2.97;1.63;;;;;;;10.94;100.00;100654.25;2087759;28;20469;-73
2024/02/09 03:36:55;;;;;;;1.63;1.27;;;;;;;11.01;100.00;100654.09;2086917;28;20199;-73
2024/02/09 03:37:55;;;;;;;4.53;1.47;;;;;;;11.03;100.00;100659.97;2086424;28;20478;-73
2024/02/09 03:38:56;;;;;;;6.00;1.40;;;;;;;10.80;100.00;100613.81;2086978;28;20196;-73
2024/02/09 03:39:57;;;;;;;4.57;1.40;;;;;;;10.49;100.00;100561.91;2085729;28;20521;-73
2024/02/09 03:40:57;;;;;;;5.40;2.00;;;;;;;10.84;100.00;100631.13;2085875;28;20188;-73
2024/02/09 03:41:58;;;;;;;3.43;1.70;;;;;;;10.93;100.00;100614.66;2088559;28;20951;-73
2024/02/09 03:42:59;;;;;;;4.43;1.50;;;;;;;11.15;100.00;100660.06;2085159;28;20223;-73
2024/02/09 03:44:03;;;;;;;4.93;1.77;;;;;;;11.04;100.00;100642.13;2086169;28;20532;-73
2024/02/09 03:45:06;;;;;;;4.60;1.40;;;;;;;10.67;100.00;100573.38;2086666;28;20446;-73
2024/02/09 03:46:07;;;;;;;4.87;2.13;;;;;;;10.96;100.00;100607.47;2086460;28;21053;-73
2024/02/09 03:47:07;;;;;;;1.93;1.10;;;;;;;11.25;100.00;100650.69;2086669;28;20836;-73
2024/02/09 03:48:08;;;;;;;5.93;1.73;;;;;;;11.04;100.00;100606.06;2086339;28;20351;-73
2024/02/09 03:49:11;;;;;;;3.00;1.53;;;;;;;11.06;100.00;100611.97;2087555;28;20359;-73
2024/02/09 03:50:13;;;;;;;3.63;1.30;;;;;;;10.72;100.00;100568.06;2086835;28;20191;-73
2024/02/09 03:51:14;;;;;;;3.17;1.40;;;;;;;11.26;100.00;100655.00;2085922;28;20857;-73
2024/02/09 03:52:20;;;;;;;3.13;1.30;;;;;;;11.27;100.00;100628.06;2086529;28;20446;-73
2024/02/09 03:53:20;;;;;;;9.67;1.43;;;;;;;11.31;100.00;100631.50;2085748;28;20196;-73
2024/02/09 03:54:21;;;;;;;5.90;1.50;;;;;;;11.32;100.00;100641.41;2086878;28;20965;-72
2024/02/09 03:55:21;;;;;;;4.07;1.57;;;;;;;10.74;100.00;100556.53;2087969;28;20242;-73
2024/02/09 03:56:22;;;;;;;2.97;1.53;;;;;;;11.04;100.00;100604.09;2087040;28;20207;-73
2024/02/09 03:57:27;;;;;;;3.53;1.50;;;;;;;11.29;100.00;100636.72;2086299;28;20206;-73
2024/02/09 03:58:27;;;;;;;1.97;1.23;;;;;;;11.28;100.00;100632.38;2086344;28;20290;-73
2024/02/09 03:59:29;;;;;;;5.63;1.87;;;;;;;11.30;100.00;100638.25;2085579;28;20794;-73
2024/02/09 04:00:30;;;;;;;4.07;1.27;;;;;;;11.23;100.00;100628.13;2086153;28;20580;-72
2024/02/09 04:01:30;;;;;;;1.87;1.27;;;;;;;11.03;100.00;100591.44;2086011;28;20422;-72
2024/02/09 04:02:31;;;;;;;4.50;1.40;;;;;;;11.26;100.00;100635.59;2095695;28;20626;-72
2024/02/09 04:03:32;;;;;;;3.33;1.40;;;;;;;11.27;100.00;100639.91;2093514;28;20696;-72
2024/02/09 04:04:33;;;;;;;3.30;1.30;;;;;;;11.25;100.00;100631.25;2086540;28;20198;-73
2024/02/09 04:05:37;;;;;;;3.30;1.33;;;;;;;10.88;100.00;100593.00;2085170;28;20474;-73
2024/02/09 04:06:39;;;;;;;2.60;1.20;;;;;;;11.35;100.00;100649.63;2086195;28;20196;-73
2024/02/09 04:07:39;;;;;;;2.20;1.50;;;;;;;11.37;100.00;100646.41;2085875;28;20434;-73
2024/02/09 04:08:40;;;;;;;3.73;1.50;;;;;;;11.40;100.00;100649.09;2088321;28;20418;-73
2024/02/09 04:09:40;;;;;;;2.30;1.00;;;;;;;10.95;100.00;100576.19;2086142;28;20192;-73
2024/02/09 04:10:41;;;;;;;3.57;1.53;;;;;;;11.39;100.00;100639.22;2086105;28;20202;-73
2024/02/09 04:11:41;;;;;;;4.00;1.30;;;;;;;11.46;100.00;100649.31;2085943;28;20223;-73
2024/02/09 04:12:42;;;;;;;2.10;1.30;;;;;;;11.08;100.00;100599.22;2086133;28;23761;-73
2024/02/09 04:13:43;;;;;;;6.37;1.70;;;;;;;11.49;100.00;100640.91;2085728;28;20184;-73
2024/02/09 04:14:43;;;;;;;3.93;1.43;;;;;;;10.99;100.00;100578.84;2088726;28;20950;-73
2024/02/09 04:15:44;;;;;;;2.83;1.27;;;;;;;10.97;100.00;100565.44;2084584;28;20282;-73
2024/02/09 04:16:49;;;;;;;4.40;1.50;;;;;;;11.09;100.00;100600.00;2086189;28;20198;-73
2024/02/09 04:17:51;;;;;;;3.07;1.30;;;;;;;11.50;100.00;100648.03;2085313;28;20204;-73
2024/02/09 04:18:52;;;;;;;4.60;1.60;;;;;;;11.50;100.00;100648.03;2085850;28;20486;-73
2024/02/09 04:19:53;;;;;;;3.10;1.47;;;;;;;11.51;100.00;100648.78;2086334;28;20430;-73
2024/02/09 04:20:54;;;;;;;4.97;1.50;;;;;;;11.05;100.00;100586.22;2087398;28;20230;-73
2024/02/09 04:21:55;;;;;;;3.63;1.30;;;;;;;11.49;100.00;100652.03;2086835;28;20561;-73
2024/02/09 04:22:55;;;;;;;2.27;1.23;;;;;;;11.19;100.00;100610.81;2085460;28;20448;-73
2024/02/09 04:23:56;;;;;;;3.90;1.20;;;;;;;11.47;100.00;100656.44;2085887;28;20192;-73
2024/02/09 04:24:57;;;;;;;2.07;1.03;;;;;;;11.31;100.00;100637.81;2086468;28;20275;-73
2024/02/09 04:25:59;;;;;;;5.63;1.60;;;;;;;11.41;100.00;100655.41;2085737;28;20208;-73
2024/02/09 04:27:00;;;;;;;4.40;1.90;;;;;;;11.42;100.00;100654.22;2086159;28;20196;-73
2024/02/09 04:28:03;;;;;;;2.03;1.37;;;;;;;11.07;100.00;100621.84;2087251;28;20450;-73
2024/02/09 04:29:04;;;;;;;4.17;1.53;;;;;;;11.37;100.00;100672.16;2085342;28;20250;-73
2024/02/09 04:30:05;;;;;;;3.23;1.20;;;;;;;11.25;100.00;100634.03;2086444;28;20919;-73
2024/02/09 04:31:05;;;;;;;2.53;1.30;;;;;;;11.34;100.00;100648.06;2085872;28;20184;-73
2024/02/09 04:32:06;;;;;;;5.03;1.43;;;;;;;11.36;100.00;100653.94;2086605;28;20188;-73
2024/02/09 04:33:09;;;;;;;1.83;1.07;;;;;;;11.26;100.00;100638.34;2085775;28;20177;-73
2024/02/09 04:34:13;;;;;;;2.30;1.00;;;;;;;11.25;100.00;100644.34;2088036;28;20653;-73
2024/02/09 04:35:14;;;;;;;3.17;1.30;;;;;;;11.35;100.00;100657.94;2087616;28;20539;-73
2024/02/09 04:36:17;;;;;;;6.63;1.40;;;;;;;11.34;100.00;100666.69;2086474;28;20472;-73
2024/02/09 04:37:21;;;;;;;4.23;1.63;;;;;;;11.33;100.00;100659.59;2085026;28;20442;-73
2024/02/09 04:38:22;;;;;;;3.40;1.33;;;;;;;11.31;100.00;100662.78;2085800;28;20438;-73
2024/02/09 04:39:22;;;;;;;2.60;1.53;;;;;;;11.24;100.00;100651.91;2086143;28;20434;-73
2024/02/09 04:40:23;;;;;;;3.73;1.10;;;;;;;11.31;100.00;100668.34;2086037;28;20426;-73
2024/02/09 04:41:23;;;;;;;2.63;1.13;;;;;;;11.31;100.00;100670.31;2087067;28;20199;-73
2024/02/09 04:42:23;;;;;;;3.17;1.73;;;;;;;10.95;100.00;100614.22;2085464;28;20204;-73
2024/02/09 04:43:24;;;;;;;5.20;1.37;;;;;;;11.25;100.00;100667.31;2085824;28;20203;-73
2024/02/09 04:44:24;;;;;;;5.70;1.60;;;;;;;11.23;100.00;100664.19;2085807;28;20233;-73
2024/02/09 04:45:25;;;;;;;2.97;1.23;;;;;;;10.70;100.00;100584.34;2086208;28;20191;-73
2024/02/09 04:46:26;;;;;;;3.70;1.50;;;;;;;11.17;100.00;100659.63;2086091;28;20224;-73
2024/02/09 04:47:26;;;;;;;1.70;1.33;;;;;;;11.17;100.00;100670.72;2086939;28;20261;-73
2024/02/09 04:48:27;;;;;;;4.30;1.23;;;;;;;11.16;100.00;100669.91;2086028;28;20226;-73
2024/02/09 04:49:27;;;;;;;3.33;1.13;;;;;;;10.81;100.00;100618.13;2086002;28;20202;-74
2024/02/09 04:50:28;;;;;;;3.00;1.40;;;;;;;10.74;100.00;100609.19;2085950;28;20196;-76
2024/02/09 04:51:28;;;;;;;4.63;1.40;;;;;;;11.11;100.00;100667.66;2085891;28;20203;-79
2024/02/09 04:52:29;;;;;;;7.53;1.40;;;;;;;10.79;100.00;100622.53;2088243;28;20719;-74
2024/02/09 04:53:29;;;;;;;7.90;1.63;;;;;;;11.07;100.00;100672.53;2093115;28;20676;-74
2024/02/09 04:54:32;;;;;;;2.53;1.30;;;;;;;10.87;100.00;100640.56;2083822;28;20200;-75
2024/02/09 04:55:34;;;;;;;1.27;0.97;;;;;;;10.51;100.00;100592.75;2084538;28;20188;-74
2024/02/09 04:56:35;;;;;;;2.50;1.40;;;;;;;10.90;100.00;100656.31;2084903;28;20443;-75
2024/02/09 04:57:36;;;;;;;3.53;1.60;;;;;;;10.97;100.00;100665.25;2084787;28;20519;-74
2024/02/09 04:58:37;;;;;;;4.27;1.50;;;;;;;10.96;100.00;100669.25;2085054;28;20519;-73
2024/02/09 04:59:37;;;;;;;3.17;1.20;;;;;;;10.66;100.00;100628.00;2087796;28;20194;-76
2024/02/09 05:00:38;;;;;;;1.53;1.13;;;;;;;10.61;100.00;100620.19;2085887;28;20215;-75
2024/02/09 05:01:41;;;;;;;3.63;1.77;;;;;;;10.95;100.00;100669.66;2084308;28;20213;-75
2024/02/09 05:02:46;;;;;;;4.10;1.60;;;;;;;10.84;100.00;100650.53;2084673;28;20609;-75
2024/02/09 05:03:47;;;;;;;6.43;2.00;;;;;;;10.87;100.00;100660.75;2083783;28;20506;-74
2024/02/09 05:04:48;;;;;;;3.47;1.40;;;;;;;10.92;100.00;100663.00;2076447;28;20428;-75
2024/02/09 05:05:48;;;;;;;2.83;1.20;;;;;;;10.49;100.00;100604.28;2076886;28;20692;-75
2024/02/09 05:06:50;;;;;;;11.23;1.83;;;;;;;10.92;100.00;100660.22;2087011;28;20843;-74
2024/02/09 05:07:51;;;;;;;7.20;1.70;;;;;;;10.55;100.00;100601.78;2085535;28;20666;-70
2024/02/09 05:08:58;;;;;;;5.97;1.50;;;;;;;10.08;100.00;100545.09;2084930;28;20457;-70
2024/02/09 05:09:59;;;;;;;4.50;1.87;;;;;;;10.75;100.00;100635.69;2085177;28;20453;-72
2024/02/09 05:10:59;;;;;;;8.83;1.93;;;;;;;10.94;100.00;100668.13;2084994;28;20538;-72
2024/02/09 05:12:00;;;;;;;10.63;2.20;;;;;;;10.47;100.00;100603.94;2084730;28;20184;-70
2024/02/09 05:13:02;;;;;;;9.27;2.57;;;;;;;10.78;100.00;100648.72;2082229;28;20850;-70
2024/02/09 05:14:06;;;;;;;7.10;4.67;;;;;;;10.87;100.00;100665.53;2084019;28;20193;-70
2024/02/09 05:15:07;;;;;;;12.10;4.17;;;;;;;10.85;100.00;100659.63;2085263;28;20438;-73
2024/02/09 05:16:11;;;;;;;8.10;2.40;;;;;;;10.38;100.00;100597.41;2085125;28;20445;-71
2024/02/09 05:17:11;;;;;;;5.27;2.37;;;;;;;10.77;100.00;100655.47;2085667;28;20439;-71
2024/02/09 05:18:14;;;;;;;8.53;2.00;;;;;;;10.75;100.00;100652.34;2085118;28;20526;-71
2024/02/09 05:19:14;;;;;;;3.87;2.03;;;;;;;10.75;100.00;100683.63;2084037;28;20223;-70
2024/02/09 05:20:15;;;;;;;11.30;2.17;;;;;;;10.73;100.00;100641.69;2087037;28;20426;-71
2024/02/09 05:21:15;;;;;;;7.97;2.13;;;;;;;10.66;100.00;100636.31;2083436;28;20202;-71
2024/02/09 05:22:16;;;;;;;5.00;2.23;;;;;;;10.50;100.00;100610.59;2084881;28;20200;-71
2024/02/09 05:23:16;;;;;;;3.63;1.60;;;;;;;10.67;100.00;100648.94;2083936;28;20207;-72
2024/02/09 05:24:18;;;;;;;4.77;1.67;;;;;;;10.01;100.00;100554.34;2085266;28;20180;-73
2024/02/09 05:25:20;;;;;;;3.73;1.40;;;;;;;10.63;100.00;100641.94;2083673;28;20390;-70
2024/02/09 05:26:21;;;;;;;6.10;1.80;;;;;;;10.64;100.00;100646.28;2085191;28;20543;-69
2024/02/09 05:27:21;;;;;;;4.47;1.27;;;;;;;10.61;100.00;100652.69;2084201;28;20508;-69
2024/02/09 05:28:23;;;;;;;6.33;1.97;;;;;;;10.64;100.00;100640.72;2084680;28;20676;-73
2024/02/09 05:29:23;;;;;;;4.67;1.47;;;;;;;10.63;100.00;100647.50;2084186;28;20199;-72
2024/02/09 05:30:29;;;;;;;4.10;1.80;;;;;;;10.54;100.00;100631.47;2083180;28;20451;-74
2024/02/09 05:31:30;;;;;;;3.57;2.07;;;;;;;10.36;100.00;100599.84;2082447;28;20274;-74
2024/02/09 05:32:32;;;;;;;3.60;1.90;;;;;;;10.25;100.00;100588.25;2083803;28;20433;-75
2024/02/09 05:33:35;;;;;;;2.80;1.13;;;;;;;10.15;100.00;100580.94;2085810;28;20184;-68
2024/02/09 05:34:36;;;;;;;5.80;2.33;;;;;;;10.60;100.00;100651.91;2083808;28;20516;-70
2024/02/09 05:35:39;;;;;;;3.33;1.70;;;;;;;10.60;100.00;100654.66;2082886;28;20899;-75
2024/02/09 05:36:40;;;;;;;3.53;1.70;;;;;;;10.51;100.00;100646.16;2084079;28;20762;-72
2024/02/09 05:37:40;;;;;;;6.40;1.70;;;;;;;10.59;100.00;100650.34;2083639;28;22157;-73
2024/02/09 05:38:41;;;;;;;2.43;1.33;;;;;;;10.57;100.00;100644.47;2083733;28;20203;-72
2024/02/09 05:39:45;;;;;;;2.83;0.93;;;;;;;10.59;100.00;100641.25;2084918;28;20666;-70
2024/02/09 05:40:46;;;;;;;3.20;1.50;;;;;;;10.65;100.00;100656.94;2081257;28;20207;-68
2024/02/09 05:41:48;;;;;;;2.93;1.30;;;;;;;10.69;100.00;100654.06;2080661;28;20496;-69
2024/02/09 05:42:48;;;;;;;3.50;1.50;;;;;;;10.40;100.00;100600.56;2079933;28;20461;-69
2024/02/09 05:43:56;;;;;;;4.10;1.87;;;;;;;10.80;100.00;100658.16;2080313;28;21490;-71
2024/02/09 05:44:57;;;;;;;2.03;1.10;;;;;;;10.85;100.00;100654.06;2068426;28;20205;-69
2024/02/09 05:45:57;;;;;;;4.17;1.57;;;;;;;10.45;100.00;100597.28;2076677;28;20512;-70
2024/02/09 05:46:58;;;;;;;3.53;1.67;;;;;;;10.64;100.00;100611.03;2086519;28;20198;-70
2024/02/09 05:47:58;;;;;;;2.63;1.33;;;;;;;10.67;100.00;100615.69;2083718;28;20669;-70
2024/02/09 05:48:59;;;;;;;2.87;1.67;;;;;;;10.93;100.00;100653.47;2083960;28;20219;-70
2024/02/09 05:50:00;;;;;;;3.40;1.77;;;;;;;11.01;100.00;100663.16;2083351;28;20227;-70
2024/02/09 05:51:00;;;;;;;7.57;2.10;;;;;;;10.79;100.00;100625.31;2082435;28;20184;-70
2024/02/09 05:52:00;;;;;;;6.20;1.93;;;;;;;11.08;100.00;100670.53;2081222;28;20645;-70
2024/02/09 05:53:04;;;;;;;5.87;1.60;;;;;;;10.55;100.00;100608.06;2069935;28;20199;-70
2024/02/09 05:54:05;;;;;;;4.97;2.37;;;;;;;11.07;100.00;100666.97;2084270;28;20224;-70
2024/02/09 05:55:08;;;;;;;6.00;3.50;;;;;;;10.70;100.00;100609.28;2082019;28;20439;-70
2024/02/09 05:56:29;;;;;;;9.73;2.33;;;;;;;11.23;100.00;100686.38;2082248;28;20496;-70
2024/02/09 05:57:32;;;;;;;3.73;1.87;;;;;;;10.96;100.00;100646.28;2081013;28;20567;-70
2024/02/09 05:58:34;;;;;;;1.67;1.20;;;;;;;10.98;100.00;100641.09;2079465;28;20963;-70
2024/02/09 05:59:35;;;;;;;5.80;1.90;;;;;;;10.88;100.00;100628.25;2069066;28;20443;-70
2024/02/09 06:00:35;;;;;;;5.57;1.90;;;;;;;11.22;100.00;100695.16;2081059;28;20521;-70
2024/02/09 06:01:38;;;;;;;5.00;1.77;;;;;;;11.30;100.00;100685.41;2083578;28;20277;-70
2024/02/09 06:02:38;;;;;;;4.07;1.80;;;;;;;11.03;100.00;100646.91;2082241;28;20697;-70
2024/02/09 06:03:41;;;;;;;9.37;2.80;;;;;;;11.33;100.00;100682.53;2077910;28;20898;-70
2024/02/09 06:04:41;;;;;;;3.40;1.77;;;;;;;11.40;100.00;100685.16;2083278;28;20195;-70
2024/02/09 06:05:42;;;;;;;9.37;3.63;;;;;;;11.42;100.00;100682.72;2080796;28;20486;-70
2024/02/09 06:06:43;;;;;;;6.47;2.53;;;;;;;11.00;100.00;100614.47;2083778;28;20212;-70
2024/02/09 06:07:44;;;;;;;6.00;2.03;;;;;;;11.52;100.00;100675.34;2076651;28;20542;-70
2024/02/09 06:08:47;;;;;;;4.20;1.80;;;;;;;10.84;100.00;100586.78;2082533;28;20454;-70
2024/02/09 06:09:48;;;;;;;4.17;1.57;;;;;;;11.60;100.00;100677.50;2072782;28;20323;-69
2024/02/09 06:10:48;;;;;;;4.17;1.60;;;;;;;11.66;100.00;100684.09;2073776;28;20516;-69
2024/02/09 06:11:49;;;;;;;5.20;1.20;;;;;;;11.42;100.00;100627.22;2070519;28;20199;-69
2024/02/09 06:12:49;;;;;;;5.43;1.67;;;;;;;11.84;100.00;100686.38;2081221;28;20259;-70
2024/02/09 06:13:50;;;;;;;6.83;2.03;;;;;;;11.48;100.00;100616.38;2083856;28;20196;-69
2024/02/09 06:14:53;;;;;;;3.50;1.30;;;;;;;11.84;100.00;100670.47;2078981;28;20192;-70
2024/02/09 06:15:57;;;;;;;2.67;1.10;;;;;;;11.91;100.00;100684.19;2083127;28;20184;-69
2024/02/09 06:17:00;;;;;;;7.10;1.60;;;;;;;11.95;100.00;100687.63;2073265;28;20782;-70
2024/02/09 06:18:04;;;;;;;4.30;1.50;;;;;;;12.02;100.00;100679.09;2077887;28;20446;-70
2024/02/09 06:19:07;;;;;;;1.47;1.00;;;;;;;11.71;100.00;100625.25;2079339;28;20427;-64
2024/02/09 06:20:08;;;;;;;3.33;1.53;;;;;;;11.54;100.00;100607.06;2061766;28;20439;-63
2024/02/09 06:21:09;;;;;;;2.13;1.13;;;;;;;12.11;100.00;100681.22;2078388;28;20427;-63
2024/02/09 06:22:12;;;;;;;0.97;0.80;;;;;;;12.10;100.00;100677.66;2082389;28;20484;-63
2024/02/09 06:23:13;;;;;;;6.07;1.20;;;;;;;12.16;100.00;100686.25;2080810;28;20891;-63
2024/02/09 06:24:15;;;;;;;2.27;1.17;;;;;;;12.24;100.00;100679.25;2066112;28;20446;-63
2024/02/09 06:25:16;;;;;;;4.80;1.30;;;;;;;12.25;100.00;100672.47;2053788;28;21430;-63
2024/02/09 06:26:17;;;;;;;5.63;1.30;;;;;;;10.76;100.00;100429.41;2048086;28;21417;-63
2024/02/09 06:27:17;;;;;;;4.70;1.40;;;;;;;11.94;100.00;100613.84;2063109;28;20196;-64
2024/02/09 06:28:21;;;;;;;3.27;1.57;;;;;;;12.21;100.00;100633.69;2063394;28;20339;-63
2024/02/09 06:29:22;;;;;;;2.43;1.30;;;;;;;12.50;99.45;100675.28;2082791;28;20249;-63
2024/02/09 06:30:22;;;;;;;3.37;1.10;;;;;;;12.07;99.40;100614.66;2082899;28;21009;-64
2024/02/09 06:31:25;;;;;;;3.17;0.90;;;;;;;12.26;98.03;100633.16;2082327;28;20235;-63
2024/02/09 06:32:26;;;;;;;2.13;1.10;;;;;;;12.61;98.34;100678.50;2083220;28;20194;-63